Time;durP1;ratioP1;P1;durP2;ratioP2;P2;SDS_P1;SDS_P2;PMS_P1;PMS_P2;Temp;Humidity;BMP_temperature;BMP_pressure;BME280_temperature;BME280_humidity;BME280_pressure;Samples;Min_cycle;Max_cycle;Signal;HPM_P1;HPM_P2
2022/05/02 00:00:16;;;;;;;23.23;18.65;;;6.80;99.90;;;6.04;100.00;97839.03;4990688;28;20053;-73
2022/05/02 00:02:43;;;;;;;18.83;16.80;;;6.80;99.90;;;5.97;100.00;97834.84;4993700;28;20046;-73
2022/05/02 00:05:11;;;;;;;20.27;17.63;;;6.80;99.90;;;5.97;100.00;97827.13;5003557;28;20451;-73
2022/05/02 00:07:38;;;;;;;19.50;17.40;;;6.80;99.90;;;5.95;100.00;97828.03;5005332;28;20412;-72
2022/05/02 00:10:06;;;;;;;20.77;18.58;;;6.80;99.90;;;5.82;100.00;97820.53;5006251;28;20128;-72
2022/05/02 00:12:34;;;;;;;21.52;19.15;;;6.70;99.90;;;5.85;100.00;97817.88;4988997;28;20088;-72
2022/05/02 00:15:02;;;;;;;20.25;16.75;;;6.70;99.90;;;5.97;100.00;97808.25;4990551;28;20096;-72
2022/05/02 00:20:16;;;;;;;18.00;16.10;;;6.70;99.90;;;5.86;100.00;97806.72;5000497;28;20050;-72
2022/05/02 00:22:44;;;;;;;22.45;18.23;;;6.70;99.90;;;5.79;100.00;97807.72;4984433;28;20052;-73
2022/05/02 00:25:12;;;;;;;18.92;14.68;;;6.70;99.90;;;5.86;100.00;97803.28;5003272;28;20057;-72
2022/05/02 00:27:40;;;;;;;17.60;14.70;;;6.60;99.90;;;5.96;100.00;97797.09;4986949;28;20061;-73
2022/05/02 00:30:10;;;;;;;16.80;14.60;;;6.60;99.90;;;5.84;100.00;97787.03;4982484;28;20096;-72
2022/05/02 00:32:38;;;;;;;18.05;14.63;;;6.60;99.90;;;5.91;100.00;97785.16;4986379;28;20128;-72
2022/05/02 00:35:07;;;;;;;18.50;14.27;;;6.50;99.90;;;5.84;100.00;97779.31;5001210;28;20073;-73
2022/05/02 00:37:34;;;;;;;20.30;15.80;;;6.50;99.90;;;5.80;100.00;97780.22;5008278;28;20084;-73
2022/05/02 00:40:01;;;;;;;24.20;21.58;;;6.50;99.90;;;5.71;100.00;97789.00;5003350;28;20077;-72
2022/05/02 00:42:28;;;;;;;29.80;26.63;;;6.50;99.90;;;5.71;100.00;97789.00;5004049;28;20125;-73
2022/05/02 00:44:55;;;;;;;30.45;26.85;;;6.50;99.90;;;5.74;100.00;97790.66;5001249;28;20590;-72
2022/05/02 00:47:22;;;;;;;29.38;26.27;;;6.60;99.90;;;5.85;100.00;97805.00;5002541;28;20516;-72
2022/05/02 00:49:49;;;;;;;30.70;26.25;;;6.60;99.90;;;5.90;100.00;97793.78;5006552;28;20068;-72
2022/05/02 00:52:19;;;;;;;29.00;25.25;;;6.60;99.90;;;5.96;100.00;97791.09;5003986;28;20146;-72
2022/05/02 00:54:46;;;;;;;30.08;26.83;;;6.70;99.90;;;6.00;100.00;97791.00;4972016;28;20555;-73
2022/05/02 00:57:16;;;;;;;34.78;28.90;;;6.70;99.90;;;5.93;100.00;97797.16;5013637;28;20054;-72
2022/05/02 00:59:45;;;;;;;30.85;25.35;;;6.80;99.90;;;5.94;100.00;97788.56;4985055;28;20476;-71
2022/05/02 01:02:15;;;;;;;29.80;25.42;;;6.80;99.90;;;5.97;100.00;97790.22;5001973;28;20082;-72
2022/05/02 01:04:44;;;;;;;32.17;27.55;;;6.80;99.90;;;5.98;100.00;97791.94;5021223;28;20054;-72
2022/05/02 01:07:12;;;;;;;29.80;26.10;;;6.80;99.90;;;5.95;100.00;97795.38;5000861;28;20133;-73
2022/05/02 01:09:47;;;;;;;30.83;27.33;;;6.80;99.90;;;5.95;100.00;97791.97;5000745;28;20042;-71
2022/05/02 01:12:21;;;;;;;27.48;24.08;;;6.70;99.90;;;5.91;100.00;97792.88;5000997;28;20092;-72
2022/05/02 01:14:53;;;;;;;29.60;25.88;;;6.70;99.90;;;5.83;100.00;97791.31;5017486;28;20496;-72
2022/05/02 01:17:20;;;;;;;26.60;23.30;;;6.70;99.90;;;5.87;100.00;97787.78;5001560;28;20077;-72
2022/05/02 01:19:50;;;;;;;37.75;27.90;;;6.70;99.90;;;5.94;100.00;97790.25;5000756;28;20058;-73
2022/05/02 01:22:17;;;;;;;29.02;25.92;;;6.70;99.90;;;5.94;100.00;97787.69;5001069;28;20077;-73
2022/05/02 01:24:49;;;;;;;27.48;23.58;;;6.70;99.90;;;5.95;100.00;97790.22;5001865;28;20519;-73
2022/05/02 01:27:17;;;;;;;27.63;24.52;;;6.70;99.90;;;5.85;100.00;97786.13;4996926;28;20053;-72
2022/05/02 01:29:45;;;;;;;26.45;23.45;;;6.70;99.90;;;5.85;100.00;97783.56;5015957;28;20077;-72
2022/05/02 01:32:16;;;;;;;26.48;23.70;;;6.60;99.90;;;5.82;100.00;97786.22;5002151;28;20085;-72
2022/05/02 01:34:43;;;;;;;28.98;23.42;;;6.60;99.90;;;5.86;100.00;97778.38;5020097;28;20081;-72
2022/05/02 01:37:14;;;;;;;28.98;22.77;;;6.70;99.90;;;5.85;100.00;97783.56;4979590;28;20066;-72
2022/05/02 01:39:42;;;;;;;29.23;24.50;;;6.60;99.90;;;5.92;100.00;97772.25;5001065;28;20101;-72
2022/05/02 01:42:11;;;;;;;28.70;22.63;;;6.70;99.90;;;5.87;100.00;97784.38;5018914;28;20111;-71
2022/05/02 01:44:39;;;;;;;24.90;22.20;;;6.70;99.90;;;5.89;100.00;97774.06;4983953;28;20081;-71
2022/05/02 01:47:10;;;;;;;27.65;22.40;;;6.70;99.90;;;5.85;100.00;97774.09;4997111;28;20053;-72
2022/05/02 01:49:37;;;;;;;27.48;21.25;;;6.70;99.90;;;5.86;100.00;97778.38;5002675;28;20137;-73
2022/05/02 01:52:05;;;;;;;24.10;21.45;;;6.70;99.90;;;5.81;100.00;97782.75;4999401;28;20136;-71
2022/05/02 01:54:32;;;;;;;22.27;19.40;;;6.70;99.90;;;5.70;100.00;97773.56;5001071;28;20096;-73
2022/05/02 01:56:59;;;;;;;20.23;17.33;;;6.70;99.90;;;5.81;100.00;97777.59;5001543;28;20149;-73
2022/05/02 01:59:26;;;;;;;16.45;14.65;;;6.60;99.90;;;5.83;100.00;97775.84;5000151;28;20056;-72
2022/05/02 02:01:53;;;;;;;19.60;16.75;;;6.60;99.90;;;5.82;100.00;97779.31;5001181;28;20058;-72
2022/05/02 02:07:05;;;;;;;28.10;23.13;;;6.50;99.90;;;5.66;100.00;97771.06;5002174;28;20048;-73
2022/05/02 02:09:32;;;;;;;25.63;22.00;;;6.40;99.90;;;5.74;100.00;97785.50;5003181;28;20123;-72
2022/05/02 02:12:00;;;;;;;27.90;23.70;;;6.50;99.90;;;5.78;100.00;97780.25;5004456;28;20089;-73
2022/05/02 02:14:27;;;;;;;31.40;24.52;;;6.60;99.90;;;5.76;100.00;97787.16;4999201;28;20054;-73
2022/05/02 02:16:54;;;;;;;36.03;27.40;;;6.50;99.90;;;5.76;100.00;97792.31;5001255;28;20057;-73
2022/05/02 02:19:21;;;;;;;29.88;25.35;;;6.60;99.90;;;5.84;100.00;97782.72;5006045;28;20088;-73
2022/05/02 02:21:48;;;;;;;34.22;26.00;;;6.60;99.90;;;5.78;100.00;97785.41;5001198;28;20206;-73
2022/05/02 02:24:15;;;;;;;33.22;26.50;;;6.60;99.90;;;5.79;100.00;97791.41;5001763;28;20145;-72
2022/05/02 02:26:45;;;;;;;31.85;25.40;;;6.60;99.90;;;5.70;100.00;97783.84;4998893;28;20081;-72
2022/05/02 02:29:12;;;;;;;34.30;26.45;;;6.60;99.90;;;5.60;100.00;97778.03;5000287;28;20145;-73
2022/05/02 02:31:39;;;;;;;31.63;26.25;;;6.50;99.90;;;5.56;100.00;97779.81;4987906;28;20045;-72
2022/05/02 02:34:06;;;;;;;32.20;26.52;;;6.50;99.90;;;5.60;100.00;97780.63;5000611;28;20451;-72
2022/05/02 02:36:33;;;;;;;29.95;25.33;;;6.40;99.90;;;5.61;100.00;97780.59;5001596;28;20077;-73
2022/05/02 02:39:00;;;;;;;30.73;25.33;;;6.40;99.90;;;5.59;100.00;97779.78;5003070;28;20467;-72
2022/05/02 02:41:27;;;;;;;28.73;23.77;;;6.40;99.90;;;5.56;100.00;97777.25;4986998;28;20527;-73
2022/05/02 02:43:54;;;;;;;27.55;23.42;;;6.40;99.90;;;5.56;100.00;97781.56;5005052;28;20492;-73
2022/05/02 02:46:21;;;;;;;26.73;21.73;;;6.40;99.90;;;5.50;100.00;97773.97;5002188;28;20133;-72
2022/05/02 02:48:48;;;;;;;27.92;23.23;;;6.30;99.90;;;5.53;100.00;97772.16;5008342;28;20046;-73
2022/05/02 02:51:15;;;;;;;24.55;21.75;;;6.40;99.90;;;5.60;100.00;97772.91;5014252;28;20100;-71
2022/05/02 02:53:42;;;;;;;30.75;24.42;;;6.40;99.90;;;5.63;100.00;97763.41;5004031;28;20038;-73
2022/05/02 02:56:09;;;;;;;28.85;25.58;;;6.50;99.90;;;5.66;100.00;97765.91;5007882;28;20108;-71
2022/05/02 02:58:36;;;;;;;39.70;27.27;;;6.50;99.90;;;5.72;100.00;97764.06;4985817;28;20050;-73
2022/05/02 03:01:03;;;;;;;31.70;26.25;;;6.50;99.90;;;5.69;100.00;97765.00;5004302;28;20531;-72
2022/05/02 03:03:31;;;;;;;31.67;24.77;;;6.50;99.90;;;5.68;100.00;97767.59;4984172;28;20104;-72
2022/05/02 03:06:01;;;;;;;27.25;24.13;;;6.50;99.90;;;5.70;100.00;97761.53;4968585;28;20137;-72
2022/05/02 03:08:32;;;;;;;27.13;22.85;;;6.50;99.90;;;5.79;100.00;97763.06;5001824;28;20150;-72
2022/05/02 03:11:00;;;;;;;29.27;22.58;;;6.50;99.90;;;5.74;100.00;97755.44;5017669;28;20176;-72
2022/05/02 03:13:28;;;;;;;30.50;23.77;;;6.50;99.90;;;5.71;100.00;97758.09;4999602;28;20644;-73
2022/05/02 03:15:56;;;;;;;28.08;23.67;;;6.50;99.90;;;5.69;100.00;97752.09;4979058;28;20606;-73
2022/05/02 03:18:23;;;;;;;28.42;22.98;;;6.50;99.90;;;5.67;100.00;97751.28;4983071;28;20373;-72
2022/05/02 03:20:50;;;;;;;28.50;21.42;;;6.50;99.90;;;5.61;100.00;97748.81;5006042;28;20512;-72
2022/05/02 03:23:18;;;;;;;26.90;23.10;;;6.40;99.90;;;5.57;100.00;97752.38;5018744;28;20149;-73
2022/05/02 03:25:46;;;;;;;25.73;20.67;;;6.40;99.90;;;5.56;100.00;97748.06;5016810;28;20056;-73
2022/05/02 03:28:14;;;;;;;24.55;20.55;;;6.40;99.90;;;5.51;100.00;97743.03;4961279;28;1227405;-73
2022/05/02 03:30:42;;;;;;;34.60;24.85;;;6.40;99.90;;;5.44;100.00;97747.44;5004539;28;20132;-73
2022/05/02 03:33:09;;;;;;;27.00;18.92;;;6.30;99.90;;;5.39;100.00;97735.56;4998933;28;20081;-73
2022/05/02 03:35:36;;;;;;;20.23;16.50;;;6.30;99.90;;;5.37;100.00;97739.88;4988040;28;20452;-73
2022/05/02 03:38:04;;;;;;;15.60;13.88;;;6.20;99.90;;;5.41;100.00;97728.66;4986798;28;20042;-73
2022/05/02 03:40:31;;;;;;;20.95;15.57;;;6.10;99.90;;;5.36;100.00;97733.88;4988988;28;20076;-72
2022/05/02 03:42:58;;;;;;;27.95;18.95;;;6.10;99.90;;;5.25;100.00;97738.38;5004323;28;20138;-72
2022/05/02 03:45:26;;;;;;;37.42;21.13;;;6.10;99.90;;;5.23;100.00;97735.84;5001627;28;20064;-72
2022/05/02 03:47:53;;;;;;;23.13;18.10;;;6.00;99.90;;;5.20;100.00;97730.75;4983687;28;20150;-72
2022/05/02 03:50:20;;;;;;;25.83;21.40;;;6.10;99.90;;;5.24;100.00;97736.69;5000244;28;20140;-73
2022/05/02 03:52:53;;;;;;;;;;;6.00;99.90;;;5.26;100.00;97734.91;5004706;28;20050;-72
2022/05/02 03:55:21;;;;;;;21.88;16.95;;;6.10;99.90;;;5.23;100.00;97725.53;5000609;28;19929;-73
2022/05/02 03:57:48;;;;;;;19.17;15.40;;;6.10;99.90;;;5.16;100.00;97734.25;5000964;28;20133;-73
2022/05/02 04:00:16;;;;;;;19.70;14.88;;;6.10;99.90;;;5.20;100.00;97733.31;5004812;28;20049;-72
2022/05/02 04:02:50;;;;;;;15.93;13.30;;;6.10;99.90;;;5.31;100.00;97733.09;4990291;28;20045;-73
2022/05/02 04:05:17;;;;;;;17.95;13.55;;;6.00;99.90;;;5.21;100.00;97731.59;5004296;28;20456;-72
2022/05/02 04:07:44;;;;;;;18.20;14.13;;;6.00;99.90;;;5.08;100.00;97725.81;4975632;28;20506;-73
2022/05/02 04:10:11;;;;;;;20.15;15.77;;;6.00;99.90;;;5.03;100.00;97723.31;5002770;28;20152;-72
2022/05/02 04:12:39;;;;;;;21.55;17.90;;;5.90;99.90;;;5.06;100.00;97730.13;5005433;28;20073;-73
2022/05/02 04:15:09;;;;;;;21.40;18.35;;;5.80;99.90;;;5.03;100.00;97731.03;5003743;28;20060;-73
2022/05/02 04:17:38;;;;;;;24.20;18.98;;;5.90;99.90;;;5.07;100.00;97728.44;5000728;28;20050;-72
2022/05/02 04:20:07;;;;;;;29.58;20.02;;;5.90;99.90;;;4.94;100.00;97726.06;5002538;28;20598;-73
2022/05/02 04:22:36;;;;;;;25.23;18.70;;;5.90;99.90;;;4.95;100.00;97729.47;5000854;28;20081;-73
2022/05/02 04:25:04;;;;;;;26.08;19.27;;;5.90;99.90;;;5.07;100.00;97731.84;4987113;28;20129;-73
2022/05/02 04:27:31;;;;;;;26.77;21.02;;;5.90;99.90;;;5.26;100.00;97734.09;5000774;28;20129;-73
2022/05/02 04:29:58;;;;;;;26.58;20.73;;;6.00;99.90;;;5.23;100.00;97729.84;5001240;28;20085;-72
2022/05/02 04:32:26;;;;;;;25.17;20.20;;;6.00;99.90;;;5.15;100.00;97726.56;5003772;28;20089;-73
2022/05/02 04:34:55;;;;;;;22.40;17.35;;;6.00;99.90;;;5.10;100.00;97736.94;5007532;28;20103;-72
2022/05/02 04:37:22;;;;;;;22.27;18.00;;;6.00;99.90;;;5.20;100.00;97729.88;5002654;28;20520;-73
2022/05/02 04:39:49;;;;;;;24.73;17.25;;;6.00;99.90;;;5.22;100.00;97730.72;5003020;28;20086;-72
2022/05/02 04:42:17;;;;;;;24.83;16.95;;;6.00;99.90;;;5.26;100.00;97729.78;5009554;28;20104;-72
2022/05/02 04:44:44;;;;;;;22.17;18.23;;;6.10;99.90;;;5.36;100.00;97738.16;5021828;28;20062;-73
2022/05/02 04:47:12;;;;;;;22.42;18.20;;;6.10;99.90;;;5.36;100.00;97738.16;5001905;28;20448;-73
2022/05/02 04:49:39;;;;;;;22.50;17.30;;;6.10;99.90;;;5.47;100.00;97732.81;5014122;28;20168;-72
2022/05/02 04:52:43;;;;;;;18.98;16.25;;;6.10;99.90;;;5.48;100.00;97730.22;4996871;28;20050;-72
2022/05/02 04:55:10;;;;;;;19.23;15.13;;;6.20;99.90;;;5.46;100.00;97729.41;4998274;28;20695;-73
2022/05/02 04:57:36;;;;;;;15.05;11.90;;;6.20;99.90;;;5.59;100.00;97728.28;4999216;28;20173;-73
2022/05/02 05:00:04;;;;;;;14.43;12.43;;;6.30;99.90;;;5.65;100.00;97727.28;5003242;28;20070;-73
2022/05/02 05:02:31;;;;;;;14.52;12.57;;;6.30;99.90;;;5.75;100.00;97718.50;4983336;28;20042;-71
2022/05/02 05:04:58;;;;;;;17.15;13.57;;;6.30;99.90;;;5.61;100.00;97721.38;4987982;28;20057;-73
2022/05/02 05:07:25;;;;;;;15.05;12.20;;;6.30;99.90;;;5.75;100.00;97720.25;4986362;28;20464;-73
2022/05/02 05:09:53;;;;;;;14.73;11.95;;;6.40;99.90;;;5.80;100.00;97714.09;4998235;28;20049;-72
2022/05/02 05:12:46;;;;;;;18.40;14.55;;;6.40;99.90;;;5.87;100.00;97714.81;4992855;28;20153;-73
2022/05/02 05:19:30;;;;;;;15.75;11.80;;;6.50;99.90;;;5.54;100.00;97706.06;4985194;28;20060;-73
2022/05/02 05:22:21;;;;;;;22.13;16.13;;;6.60;99.90;;;5.65;100.00;97710.09;5014366;28;20050;-73
2022/05/02 05:25:22;;;;;;;20.27;13.48;;;6.60;99.90;;;5.86;100.00;97713.09;4998016;28;20160;-73
2022/05/02 05:28:15;;;;;;;22.10;16.08;;;6.60;99.90;;;5.99;100.00;97716.31;4981664;28;20133;-73
2022/05/02 05:30:48;;;;;;;19.88;13.60;;;6.80;99.90;;;6.24;100.00;97709.72;5004170;28;20084;-73
2022/05/02 05:33:27;;;;;;;17.15;12.48;;;6.90;99.90;;;6.30;100.00;97713.91;4984926;28;20606;-73
2022/05/02 05:36:34;;;;;;;15.48;12.00;;;7.00;99.90;;;6.15;100.00;97712.50;4981471;28;20057;-74
2022/05/02 05:39:19;;;;;;;16.80;12.70;;;7.10;99.90;;;6.31;100.00;97710.41;4964266;28;20157;-72
2022/05/02 05:42:17;;;;;;;22.10;14.07;;;7.10;99.90;;;6.38;100.00;97709.38;4983177;28;20136;-73
2022/05/02 05:45:11;;;;;;;21.17;16.08;;;7.20;99.90;;;6.45;100.00;97710.09;5005807;28;20411;-73
2022/05/02 05:48:02;;;;;;;21.35;15.98;;;7.30;99.90;;;6.65;100.00;97714.78;5004109;28;20134;-72
2022/05/02 05:50:31;;;;;;;22.67;17.38;;;7.40;99.90;;;6.76;100.00;97715.34;4987571;28;20077;-73
2022/05/02 05:53:45;;;;;;;23.67;18.70;;;7.60;99.90;;;7.06;100.00;97720.63;5004218;28;20149;-73
2022/05/02 05:56:47;;;;;;;17.73;13.93;;;7.80;99.90;;;7.44;100.00;97722.16;4998654;28;20531;-72
2022/05/02 05:59:20;;;;;;;19.05;13.13;;;8.10;99.90;;;7.68;100.00;97715.44;4934409;28;20161;-73
2022/05/02 06:02:14;;;;;;;18.52;13.73;;;8.30;99.90;;;7.82;100.00;97719.38;4999418;28;20092;-70
2022/05/02 06:04:43;;;;;;;17.40;13.02;;;8.40;99.90;;;7.95;100.00;97716.38;4983627;28;20064;-73
2022/05/02 06:07:11;;;;;;;17.30;13.20;;;8.60;99.90;;;8.03;100.00;97708.41;4997084;28;20134;-71
2022/05/02 06:09:42;;;;;;;17.65;13.52;;;8.80;99.90;;;8.32;100.00;97704.91;4999331;28;20128;-71
2022/05/02 06:12:13;;;;;;;21.63;12.85;;;9.00;99.90;;;8.44;100.00;97714.06;4995196;28;20139;-71
2022/05/02 06:20:20;;;;;;;21.90;13.82;;;9.60;99.90;;;9.00;100.00;97707.91;4983380;28;20060;-71
2022/05/02 06:22:48;;;;;;;20.40;14.55;;;9.80;99.90;;;9.17;100.00;97715.13;4986050;28;20112;-70
2022/05/02 06:25:15;;;;;;;20.10;15.55;;;10.00;99.90;;;9.20;100.00;97708.06;4997041;28;20081;-71
2022/05/02 06:27:43;;;;;;;18.30;14.50;;;10.10;99.90;;;9.37;100.00;97704.91;4997984;28;20242;-71
2022/05/02 06:30:11;;;;;;;19.67;14.95;;;10.30;99.90;;;9.28;100.00;97700.03;4981188;28;20132;-70
2022/05/02 06:32:44;;;;;;;19.25;13.57;;;10.50;99.90;;;9.53;100.00;97697.38;4996518;28;20145;-72
2022/05/02 06:35:11;;;;;;;;;;;10.60;99.90;;;9.55;100.00;97689.56;5014695;28;20135;-70
2022/05/02 06:38:11;;;;;;;22.67;13.88;;;10.60;99.90;;;9.51;100.00;97694.03;5001619;28;19992;-71
2022/05/02 06:41:18;;;;;;;19.58;13.85;;;10.70;99.90;;;9.62;100.00;97697.09;4999597;28;20069;-72
2022/05/02 06:43:55;;;;;;;17.52;14.35;;;10.70;99.90;;;9.74;100.00;97690.59;4992226;28;20073;-71
2022/05/02 06:46:34;;;;;;;21.40;14.10;;;10.80;99.90;;;9.99;100.00;97689.63;4998705;28;20051;-71
2022/05/02 06:49:08;;;;;;;17.35;13.32;;;;;;;10.03;100.00;97691.22;5000310;28;20585;-71
2022/05/02 06:51:49;;;;;;;19.15;12.90;;;11.20;99.90;;;9.92;100.00;97686.47;4999087;28;20119;-71
2022/05/02 06:54:49;;;;;;;17.27;12.60;;;11.30;99.90;;;10.28;100.00;97685.91;4986240;28;20510;-71
2022/05/02 06:57:57;;;;;;;18.13;13.13;;;11.50;99.90;;;10.20;100.00;97681.03;5000507;28;20050;-71
2022/05/02 07:00:36;;;;;;;18.25;11.90;;;11.60;99.90;;;10.63;100.00;97681.09;5000191;28;20050;-70
2022/05/02 07:03:20;;;;;;;19.63;12.68;;;11.70;99.90;;;10.70;100.00;97673.88;4966304;28;20058;-72
2022/05/02 07:06:05;;;;;;;16.92;12.00;;;11.80;99.90;;;10.64;100.00;97675.84;5014016;28;20051;-71
2022/05/02 07:08:58;;;;;;;15.07;10.98;;;11.90;99.90;;;11.09;100.00;97685.19;4997856;28;20088;-70
2022/05/02 07:11:58;;;;;;;15.10;10.77;;;12.10;99.90;;;11.32;100.00;97669.53;4996441;28;20058;-71
2022/05/02 07:15:22;;;;;;;15.80;12.05;;;12.30;99.90;;;11.06;100.00;97667.16;5000720;28;20152;-71
2022/05/02 07:18:08;;;;;;;16.77;11.20;;;12.40;99.90;;;11.09;100.00;97672.22;4994385;28;20050;-71
2022/05/02 07:21:18;;;;;;;16.73;10.27;;;12.40;99.90;;;11.06;100.00;97669.75;4967096;28;20213;-72
2022/05/02 07:23:50;;;;;;;17.77;11.68;;;12.50;99.90;;;11.14;100.00;97666.81;4998868;28;20073;-71
2022/05/02 07:26:20;;;;;;;14.40;10.77;;;12.60;99.90;;;11.40;100.00;97670.84;4988195;28;20100;-71
2022/05/02 07:28:49;;;;;;;15.90;10.90;;;12.60;99.90;;;11.48;100.00;97676.56;4982793;28;20041;-71
2022/05/02 07:31:23;;;;;;;16.17;10.43;;;12.70;99.90;;;11.65;100.00;97669.75;4981134;28;20468;-71
2022/05/02 07:33:53;;;;;;;14.80;10.65;;;12.80;99.90;;;11.69;100.00;97669.56;4983886;28;20046;-71
2022/05/02 07:36:23;;;;;;;12.63;9.82;;;13.00;99.90;;;11.70;100.00;97671.25;5002706;28;20492;-72
2022/05/02 07:39:01;;;;;;;15.10;9.50;;;13.20;99.90;;;11.85;100.00;97667.09;4985287;28;21353;-71
2022/05/02 07:41:28;;;;;;;15.60;9.52;;;13.20;99.90;;;12.13;100.00;97664.09;4985983;28;20056;-71
2022/05/02 07:43:59;;;;;;;14.13;10.65;;;13.20;99.90;;;11.89;100.00;97655.66;5002341;28;20535;-70
2022/05/02 07:46:43;;;;;;;18.50;10.45;;;13.30;99.90;;;11.91;100.00;97666.00;4999821;28;20080;-71
2022/05/02 07:49:16;;;;;;;15.50;11.18;;;13.40;99.90;;;11.67;100.00;97668.78;5001192;28;20450;-70
2022/05/02 07:51:50;;;;;;;16.42;10.55;;;13.40;99.90;;;12.30;100.00;97662.44;5003846;28;20069;-70
2022/05/02 07:54:25;;;;;;;13.35;9.35;;;13.40;99.90;;;12.57;100.00;97660.25;4980028;28;20411;-70
2022/05/02 07:57:01;;;;;;;11.32;9.80;;;13.60;99.90;;;12.38;100.00;97667.25;4999747;28;20112;-71
2022/05/02 07:59:37;;;;;;;14.40;9.52;;;13.70;99.90;;;12.54;100.00;97658.66;5003083;28;20141;-70
2022/05/02 08:02:05;;;;;;;16.10;8.98;;;13.80;99.90;;;12.85;100.00;97662.31;4980290;28;20066;-71
2022/05/02 08:04:34;;;;;;;12.45;9.18;;;13.90;99.90;;;12.85;100.00;97664.91;4997762;28;20057;-70
2022/05/02 08:07:12;;;;;;;12.43;9.73;;;14.00;99.90;;;12.91;100.00;97661.19;5004179;28;20042;-70
2022/05/02 08:09:51;;;;;;;14.38;9.70;;;14.10;99.90;;;12.96;100.00;97657.41;5014443;28;20072;-70
2022/05/02 08:12:37;;;;;;;14.63;10.00;;;14.20;99.90;;;12.95;100.00;97647.06;5004127;28;20445;-70
2022/05/02 08:15:33;;;;;;;13.88;9.13;;;14.30;99.90;;;13.48;100.00;97651.28;4997873;28;20573;-71
2022/05/02 08:18:30;;;;;;;14.25;9.85;;;14.40;99.90;;;13.48;100.00;97646.06;5014344;28;20050;-71
2022/05/02 08:21:13;;;;;;;18.38;10.30;;;14.70;99.90;;;13.79;100.00;97633.97;4999791;28;20049;-72
2022/05/02 08:27:31;;;;;;;13.23;10.18;;;15.10;99.90;;;13.98;100.00;97637.25;5014474;28;20053;-72
2022/05/02 08:30:04;;;;;;;12.38;9.55;;;15.30;99.90;;;14.54;100.00;97636.75;5001201;28;20136;-71
2022/05/02 08:33:00;;;;;;;13.45;10.15;;;15.50;99.90;;;14.27;100.00;97632.16;4998175;28;20508;-70
2022/05/02 08:36:00;;;;;;;12.88;9.70;;;15.60;99.90;;;14.61;100.00;97633.72;4982060;28;20149;-71
2022/05/02 08:38:55;;;;;;;10.50;8.30;;;15.80;99.90;;;15.33;100.00;97626.00;4999027;28;20092;-71
2022/05/02 08:41:28;;;;;;;12.38;8.98;;;16.20;99.90;;;15.26;100.00;97627.31;4982866;28;20042;-71
2022/05/02 08:44:51;;;;;;;14.75;9.52;;;16.60;99.90;;;15.29;100.00;97618.44;5000433;28;20162;-71
2022/05/02 08:48:22;;;;;;;12.40;8.93;;;17.00;99.90;;;15.64;100.00;97622.28;4997093;28;20164;-71
2022/05/02 08:51:38;;;;;;;12.23;8.48;;;17.20;99.90;;;15.58;100.00;97621.88;4933530;28;20085;-70
2022/05/02 08:54:47;;;;;;;15.65;11.65;;;17.30;99.90;;;16.39;100.00;97608.00;4978321;28;20471;-71
2022/05/02 08:57:39;;;;;;;13.25;8.68;;;17.60;99.90;;;16.78;100.00;97606.28;4999111;28;20057;-70
2022/05/02 09:00:27;;;;;;;10.43;8.13;;;17.70;99.90;;;17.06;100.00;97598.28;4998167;28;20077;-71
2022/05/02 09:04:29;;;;;;;14.85;8.43;;;17.80;99.90;;;16.69;100.00;97598.13;5012461;28;20047;-71
2022/05/02 09:07:39;;;;;;;16.25;8.50;;;17.80;99.90;;;16.56;100.00;97594.63;4969687;28;20503;-70
2022/05/02 09:10:23;;;;;;;12.05;7.47;;;17.60;99.90;;;16.44;100.00;97603.28;5000649;28;20512;-70
2022/05/02 09:13:21;;;;;;;9.45;7.70;;;17.50;99.90;;;17.26;100.00;97596.88;4997228;28;20046;-70
2022/05/02 09:16:27;;;;;;;13.45;9.02;;;17.70;99.90;;;18.00;100.00;97598.75;4998946;28;20054;-70
2022/05/02 09:19:34;;;;;;;10.48;7.20;;;18.20;99.90;;;18.66;100.00;97589.47;4979041;28;20068;-70
2022/05/02 09:22:20;;;;;;;10.32;7.70;;;18.60;99.90;;;17.51;100.00;97596.00;4999042;28;20073;-71
2022/05/02 09:25:04;;;;;;;9.30;7.07;;;18.80;99.90;;;17.42;100.00;97594.03;5000216;28;20474;-70
2022/05/02 09:27:54;;;;;;;8.95;6.72;;;18.60;99.90;;;17.64;100.00;97597.78;4998798;28;20149;-70
2022/05/02 09:30:51;;;;;;;12.23;7.60;;;18.40;99.90;;;17.83;100.00;97597.31;5003243;28;20054;-72
2022/05/02 09:33:44;;;;;;;11.50;7.65;;;18.50;99.90;;;17.09;100.00;97597.22;4997175;28;20057;-71
2022/05/02 09:36:14;;;;;;;10.88;8.07;;;18.20;99.90;;;16.98;100.00;97594.50;4967844;28;20137;-70
2022/05/02 09:38:51;;;;;;;10.18;8.13;;;18.40;99.90;;;16.92;100.00;97596.59;5011534;28;20046;-70
2022/05/02 09:41:52;;;;;;;10.17;7.90;;;18.60;99.90;;;17.56;100.00;97593.91;4984579;28;20116;-69
2022/05/02 09:51:49;;;;;;;10.77;6.07;;;;;;;20.87;100.00;97573.72;5001811;28;20049;-70
2022/05/02 09:58:10;;;;;;;9.52;5.88;;;20.30;99.10;;;21.14;100.00;97564.38;4998639;28;20108;-70
2022/05/02 10:01:06;;;;;;;9.27;7.00;;;20.90;99.30;;;20.51;100.00;97567.03;4995800;28;20137;-70
2022/05/02 10:03:36;;;;;;;7.63;5.78;;;21.00;98.00;;;21.27;100.00;97565.81;5002715;28;20642;-71
2022/05/02 10:06:38;;;;;;;12.85;5.20;;;21.30;97.50;;;21.70;100.00;97556.81;4982512;28;20133;-71
2022/05/02 10:09:16;;;;;;;9.10;5.97;;;21.50;96.80;;;20.69;100.00;97557.63;4975936;28;20060;-70
2022/05/02 10:12:07;;;;;;;8.55;6.00;;;21.40;95.40;;;21.59;100.00;97556.09;4995202;28;20050;-70
2022/05/02 10:14:50;;;;;;;9.95;6.90;;;21.60;94.20;;;19.89;100.00;97551.00;4998072;28;20082;-70
2022/05/02 10:17:40;;;;;;;8.85;5.90;;;21.20;94.30;;;19.25;100.00;97556.06;4992996;28;20080;-70
2022/05/02 10:20:19;;;;;;;11.57;6.50;;;20.60;94.80;;;18.48;100.00;97552.25;4985333;28;20508;-71
2022/05/02 10:23:15;;;;;;;7.50;5.35;;;19.90;95.10;;;18.99;100.00;97551.88;4997300;28;20554;-70
2022/05/02 10:26:31;;;;;;;10.52;5.20;;;19.90;95.10;;;19.59;100.00;97543.72;4995428;28;20591;-69
2022/05/02 10:29:22;;;;;;;9.57;6.10;;;20.00;95.20;;;18.51;100.00;97548.56;4995581;28;20129;-71
2022/05/02 10:32:15;;;;;;;10.35;5.75;;;19.60;95.90;;;18.45;100.00;97543.75;4997615;28;20530;-71
2022/05/02 10:34:46;;;;;;;9.23;4.88;;;19.70;95.60;;;20.14;100.00;97527.88;4979232;28;20070;-71
2022/05/02 10:37:16;;;;;;;11.48;5.53;;;20.20;95.40;;;20.31;100.00;97529.97;5015911;28;20501;-71
2022/05/02 10:39:47;;;;;;;8.48;5.32;;;20.50;93.20;;;20.79;100.00;97526.03;5013918;28;20117;-71
2022/05/02 10:42:24;;;;;;;7.00;4.68;;;21.00;90.30;;;21.14;100.00;97520.34;4984416;28;20483;-70
2022/05/02 10:45:03;;;;;;;11.82;5.47;;;21.40;92.20;;;20.17;100.00;97525.03;5014542;28;20058;-70
2022/05/02 10:47:59;;;;;;;6.85;4.30;;;21.60;92.40;;;20.79;100.00;97510.19;4999683;28;20078;-70
2022/05/02 10:50:32;;;;;;;9.63;6.13;;;21.50;92.30;;;19.50;100.00;97524.25;4983825;28;21610;-70
2022/05/02 10:53:40;;;;;;;9.63;5.68;;;20.90;91.40;;;19.02;100.00;97522.72;4999490;28;20678;-71
2022/05/02 10:56:24;;;;;;;9.35;4.78;;;20.10;91.00;;;21.06;100.00;97518.38;5000145;28;21641;-70
2022/05/02 10:58:54;;;;;;;7.13;4.32;;;20.80;92.50;;;22.03;100.00;97495.81;4982712;28;20165;-71
2022/05/02 11:02:02;;;;;;;7.80;4.85;;;21.70;90.70;;;21.39;100.00;97505.00;5003808;28;20179;-71
2022/05/02 11:04:54;;;;;;;6.40;4.50;;;21.90;89.00;;;22.08;100.00;97504.19;5014277;28;20129;-71
2022/05/02 11:07:35;;;;;;;9.60;5.32;;;22.70;89.70;;;20.85;100.00;97507.03;5003922;28;20050;-71
2022/05/02 11:10:12;;;;;;;8.55;4.65;;;22.20;88.80;;;20.20;100.00;97495.78;5001533;28;20283;-72
2022/05/02 11:12:51;;;;;;;8.30;4.13;;;21.80;89.40;;;20.08;100.00;97507.34;5015961;28;20167;-71
2022/05/02 11:15:25;;;;;;;7.57;4.85;;;21.20;89.30;;;19.71;100.00;97508.53;5003044;28;20072;-70
2022/05/02 11:21:55;;;;;;;8.27;4.57;;;20.50;87.40;;;19.69;100.00;97497.28;5002699;28;20096;-71
2022/05/02 11:25:14;;;;;;;11.38;5.60;;;20.60;87.70;;;21.45;100.00;97493.94;5002403;28;20061;-71